sensor_id;sensor_type;location;lat;lon;timestamp;temperature;humidity
27797;DHT22;15177;50.844;4.412;2023-07-29T00:02:25;21.20;99.90
27797;DHT22;15177;50.844;4.412;2023-07-29T00:04:57;21.30;99.90
27797;DHT22;15177;50.844;4.412;2023-07-29T00:07:23;21.30;99.90
27797;DHT22;15177;50.844;4.412;2023-07-29T00:09:54;21.20;99.90
27797;DHT22;15177;50.844;4.412;2023-07-29T00:12:20;21.00;99.90
27797;DHT22;15177;50.844;4.412;2023-07-29T00:14:46;20.90;99.90
27797;DHT22;15177;50.844;4.412;2023-07-29T00:17:12;20.90;99.90
27797;DHT22;15177;50.844;4.412;2023-07-29T00:19:37;20.90;99.90
27797;DHT22;15177;50.844;4.412;2023-07-29T00:22:04;20.80;99.90
27797;DHT22;15177;50.844;4.412;2023-07-29T00:24:30;20.70;99.90
27797;DHT22;15177;50.844;4.412;2023-07-29T00:26:56;20.60;99.90
27797;DHT22;15177;50.844;4.412;2023-07-29T00:29:24;20.60;99.90
27797;DHT22;15177;50.844;4.412;2023-07-29T00:31:50;20.60;99.90
27797;DHT22;15177;50.844;4.412;2023-07-29T00:34:15;20.60;99.90
27797;DHT22;15177;50.844;4.412;2023-07-29T00:36:47;20.50;99.90
27797;DHT22;15177;50.844;4.412;2023-07-29T00:39:13;20.40;99.90
27797;DHT22;15177;50.844;4.412;2023-07-29T00:41:41;20.30;99.90
27797;DHT22;15177;50.844;4.412;2023-07-29T00:44:07;20.40;99.90
27797;DHT22;15177;50.844;4.412;2023-07-29T00:46:37;20.30;99.90
27797;DHT22;15177;50.844;4.412;2023-07-29T00:49:03;20.30;99.90
27797;DHT22;15177;50.844;4.412;2023-07-29T00:51:29;20.20;99.90
27797;DHT22;15177;50.844;4.412;2023-07-29T00:53:55;20.20;99.90
27797;DHT22;15177;50.844;4.412;2023-07-29T00:56:24;20.00;99.90
27797;DHT22;15177;50.844;4.412;2023-07-29T00:58:50;20.00;99.90
27797;DHT22;15177;50.844;4.412;2023-07-29T01:01:22;20.00;99.90
27797;DHT22;15177;50.844;4.412;2023-07-29T01:03:50;20.00;99.90
27797;DHT22;15177;50.844;4.412;2023-07-29T01:09:14;19.90;99.90
27797;DHT22;15177;50.844;4.412;2023-07-29T01:14:40;19.90;99.90
27797;DHT22;15177;50.844;4.412;2023-07-29T01:17:22;19.80;99.90
27797;DHT22;15177;50.844;4.412;2023-07-29T01:20:08;19.80;99.90
27797;DHT22;15177;50.844;4.412;2023-07-29T01:22:37;19.70;99.90
27797;DHT22;15177;50.844;4.412;2023-07-29T01:25:13;19.90;99.90
27797;DHT22;15177;50.844;4.412;2023-07-29T01:27:52;19.80;99.90
27797;DHT22;15177;50.844;4.412;2023-07-29T01:30:33;19.70;99.90
27797;DHT22;15177;50.844;4.412;2023-07-29T01:33:25;19.80;99.90
27797;DHT22;15177;50.844;4.412;2023-07-29T01:36:07;19.80;99.90
27797;DHT22;15177;50.844;4.412;2023-07-29T01:38:41;19.80;99.90
27797;DHT22;15177;50.844;4.412;2023-07-29T01:41:10;19.90;99.90
27797;DHT22;15177;50.844;4.412;2023-07-29T01:43:40;19.80;99.90
27797;DHT22;15177;50.844;4.412;2023-07-29T01:46:21;19.80;99.90
27797;DHT22;15177;50.844;4.412;2023-07-29T01:49:07;19.90;99.90
27797;DHT22;15177;50.844;4.412;2023-07-29T01:51:38;19.80;99.90
27797;DHT22;15177;50.844;4.412;2023-07-29T01:54:05;19.80;99.90
27797;DHT22;15177;50.844;4.412;2023-07-29T01:56:38;19.90;99.90
27797;DHT22;15177;50.844;4.412;2023-07-29T01:59:10;19.80;99.90
27797;DHT22;15177;50.844;4.412;2023-07-29T02:01:49;19.70;99.90
27797;DHT22;15177;50.844;4.412;2023-07-29T02:04:21;19.80;99.90
27797;DHT22;15177;50.844;4.412;2023-07-29T02:06:50;19.80;99.90
27797;DHT22;15177;50.844;4.412;2023-07-29T02:09:20;19.80;99.90
27797;DHT22;15177;50.844;4.412;2023-07-29T02:11:51;19.80;99.90
27797;DHT22;15177;50.844;4.412;2023-07-29T02:14:17;19.70;99.90
27797;DHT22;15177;50.844;4.412;2023-07-29T02:16:48;19.80;99.90
27797;DHT22;15177;50.844;4.412;2023-07-29T02:19:20;19.60;99.90
27797;DHT22;15177;50.844;4.412;2023-07-29T02:21:49;19.60;99.90
27797;DHT22;15177;50.844;4.412;2023-07-29T02:24:19;19.70;99.90
27797;DHT22;15177;50.844;4.412;2023-07-29T02:26:50;19.70;99.90
27797;DHT22;15177;50.844;4.412;2023-07-29T02:29:16;19.60;99.90
27797;DHT22;15177;50.844;4.412;2023-07-29T02:31:52;19.50;99.90
27797;DHT22;15177;50.844;4.412;2023-07-29T02:34:24;19.60;99.90
27797;DHT22;15177;50.844;4.412;2023-07-29T02:36:55;19.60;99.90
27797;DHT22;15177;50.844;4.412;2023-07-29T02:39:28;19.50;99.90
27797;DHT22;15177;50.844;4.412;2023-07-29T02:42:00;19.50;99.90
27797;DHT22;15177;50.844;4.412;2023-07-29T02:44:25;19.50;99.90
27797;DHT22;15177;50.844;4.412;2023-07-29T02:46:57;19.50;99.90
27797;DHT22;15177;50.844;4.412;2023-07-29T02:49:23;19.50;99.90
27797;DHT22;15177;50.844;4.412;2023-07-29T02:51:49;19.60;99.90
27797;DHT22;15177;50.844;4.412;2023-07-29T02:54:27;19.50;99.90
27797;DHT22;15177;50.844;4.412;2023-07-29T02:56:58;19.50;99.90
27797;DHT22;15177;50.844;4.412;2023-07-29T02:59:26;19.40;99.90
27797;DHT22;15177;50.844;4.412;2023-07-29T03:01:59;19.50;99.90
27797;DHT22;15177;50.844;4.412;2023-07-29T03:04:31;19.50;99.90
27797;DHT22;15177;50.844;4.412;2023-07-29T03:07:11;19.60;99.90
27797;DHT22;15177;50.844;4.412;2023-07-29T03:09:39;19.50;99.90
27797;DHT22;15177;50.844;4.412;2023-07-29T03:12:22;19.50;99.90
27797;DHT22;15177;50.844;4.412;2023-07-29T03:14:48;19.50;99.90
27797;DHT22;15177;50.844;4.412;2023-07-29T03:17:27;19.60;99.90
27797;DHT22;15177;50.844;4.412;2023-07-29T03:19:53;19.50;99.90
27797;DHT22;15177;50.844;4.412;2023-07-29T03:22:24;19.40;99.90
27797;DHT22;15177;50.844;4.412;2023-07-29T03:24:55;19.40;99.90
27797;DHT22;15177;50.844;4.412;2023-07-29T03:27:21;19.40;99.90
27797;DHT22;15177;50.844;4.412;2023-07-29T03:29:54;19.40;99.90
27797;DHT22;15177;50.844;4.412;2023-07-29T03:32:23;19.40;99.90
27797;DHT22;15177;50.844;4.412;2023-07-29T03:34:51;19.30;99.90
27797;DHT22;15177;50.844;4.412;2023-07-29T03:37:17;19.30;99.90
27797;DHT22;15177;50.844;4.412;2023-07-29T03:39:43;19.20;99.90
27797;DHT22;15177;50.844;4.412;2023-07-29T03:42:11;19.20;99.90
27797;DHT22;15177;50.844;4.412;2023-07-29T03:44:40;19.30;99.90
27797;DHT22;15177;50.844;4.412;2023-07-29T03:47:11;19.30;99.90
27797;DHT22;15177;50.844;4.412;2023-07-29T03:49:39;19.40;99.90
27797;DHT22;15177;50.844;4.412;2023-07-29T03:52:16;19.30;99.90
27797;DHT22;15177;50.844;4.412;2023-07-29T03:54:42;19.20;99.90
27797;DHT22;15177;50.844;4.412;2023-07-29T03:57:10;19.30;99.90
27797;DHT22;15177;50.844;4.412;2023-07-29T03:59:41;19.40;99.90
27797;DHT22;15177;50.844;4.412;2023-07-29T04:02:09;19.40;99.90
27797;DHT22;15177;50.844;4.412;2023-07-29T04:04:41;19.30;99.90
27797;DHT22;15177;50.844;4.412;2023-07-29T04:07:13;19.20;99.90
27797;DHT22;15177;50.844;4.412;2023-07-29T04:09:44;19.20;99.90
27797;DHT22;15177;50.844;4.412;2023-07-29T04:12:19;19.10;99.90
27797;DHT22;15177;50.844;4.412;2023-07-29T04:14:52;19.10;99.90
27797;DHT22;15177;50.844;4.412;2023-07-29T04:17:18;19.10;99.90
27797;DHT22;15177;50.844;4.412;2023-07-29T04:19:44;19.10;99.90
27797;DHT22;15177;50.844;4.412;2023-07-29T04:22:15;19.10;99.90
27797;DHT22;15177;50.844;4.412;2023-07-29T04:24:42;19.20;99.90
27797;DHT22;15177;50.844;4.412;2023-07-29T04:27:08;19.10;99.90
27797;DHT22;15177;50.844;4.412;2023-07-29T04:29:36;19.20;99.90
27797;DHT22;15177;50.844;4.412;2023-07-29T04:32:07;19.30;99.90
27797;DHT22;15177;50.844;4.412;2023-07-29T04:34:33;19.30;99.90
27797;DHT22;15177;50.844;4.412;2023-07-29T04:37:09;19.30;99.90
27797;DHT22;15177;50.844;4.412;2023-07-29T04:39:41;19.30;99.90
27797;DHT22;15177;50.844;4.412;2023-07-29T04:42:18;19.20;99.90
27797;DHT22;15177;50.844;4.412;2023-07-29T04:44:46;19.20;99.90
27797;DHT22;15177;50.844;4.412;2023-07-29T04:47:17;19.20;99.90
27797;DHT22;15177;50.844;4.412;2023-07-29T04:49:43;19.20;99.90
27797;DHT22;15177;50.844;4.412;2023-07-29T04:52:09;19.20;99.90
27797;DHT22;15177;50.844;4.412;2023-07-29T04:54:37;19.20;99.90
27797;DHT22;15177;50.844;4.412;2023-07-29T04:57:05;19.20;99.90
27797;DHT22;15177;50.844;4.412;2023-07-29T04:59:38;19.20;99.90
27797;DHT22;15177;50.844;4.412;2023-07-29T05:02:07;19.30;99.90
27797;DHT22;15177;50.844;4.412;2023-07-29T05:04:33;19.20;99.90
27797;DHT22;15177;50.844;4.412;2023-07-29T05:06:58;19.20;99.90
27797;DHT22;15177;50.844;4.412;2023-07-29T05:09:24;19.20;99.90
27797;DHT22;15177;50.844;4.412;2023-07-29T05:11:53;19.20;99.90
27797;DHT22;15177;50.844;4.412;2023-07-29T05:14:22;19.20;99.90
27797;DHT22;15177;50.844;4.412;2023-07-29T05:16:58;19.20;99.90
27797;DHT22;15177;50.844;4.412;2023-07-29T05:19:24;19.30;99.90
27797;DHT22;15177;50.844;4.412;2023-07-29T05:21:57;19.30;99.90
27797;DHT22;15177;50.844;4.412;2023-07-29T05:24:25;19.30;99.90
27797;DHT22;15177;50.844;4.412;2023-07-29T05:26:51;19.40;99.90
27797;DHT22;15177;50.844;4.412;2023-07-29T05:29:19;19.50;99.90
27797;DHT22;15177;50.844;4.412;2023-07-29T05:31:49;19.70;99.90
27797;DHT22;15177;50.844;4.412;2023-07-29T05:34:14;19.90;99.90
27797;DHT22;15177;50.844;4.412;2023-07-29T05:36:40;20.00;99.90
27797;DHT22;15177;50.844;4.412;2023-07-29T05:39:11;20.10;99.90
27797;DHT22;15177;50.844;4.412;2023-07-29T05:41:49;20.20;99.90
27797;DHT22;15177;50.844;4.412;2023-07-29T05:44:17;20.30;99.90
27797;DHT22;15177;50.844;4.412;2023-07-29T05:46:51;20.40;99.90
27797;DHT22;15177;50.844;4.412;2023-07-29T05:49:17;20.80;99.90
27797;DHT22;15177;50.844;4.412;2023-07-29T05:51:45;21.40;99.90
27797;DHT22;15177;50.844;4.412;2023-07-29T05:54:17;22.20;99.90
27797;DHT22;15177;50.844;4.412;2023-07-29T05:56:43;23.10;99.90
27797;DHT22;15177;50.844;4.412;2023-07-29T05:59:14;24.00;99.90
27797;DHT22;15177;50.844;4.412;2023-07-29T06:01:48;24.70;99.90
27797;DHT22;15177;50.844;4.412;2023-07-29T06:04:22;24.70;99.90
27797;DHT22;15177;50.844;4.412;2023-07-29T06:06:48;24.50;99.90
27797;DHT22;15177;50.844;4.412;2023-07-29T06:09:19;24.20;99.90
27797;DHT22;15177;50.844;4.412;2023-07-29T06:11:45;23.80;99.90
27797;DHT22;15177;50.844;4.412;2023-07-29T06:14:17;23.60;99.90
27797;DHT22;15177;50.844;4.412;2023-07-29T06:16:49;23.60;99.90
27797;DHT22;15177;50.844;4.412;2023-07-29T06:19:17;23.80;99.90
27797;DHT22;15177;50.844;4.412;2023-07-29T06:21:46;24.20;99.90
27797;DHT22;15177;50.844;4.412;2023-07-29T06:24:12;24.90;99.90
27797;DHT22;15177;50.844;4.412;2023-07-29T06:26:40;25.60;99.90
27797;DHT22;15177;50.844;4.412;2023-07-29T06:29:12;26.70;99.90
27797;DHT22;15177;50.844;4.412;2023-07-29T06:31:42;26.90;99.90
27797;DHT22;15177;50.844;4.412;2023-07-29T06:34:08;26.50;99.90
27797;DHT22;15177;50.844;4.412;2023-07-29T06:36:37;26.00;99.90
27797;DHT22;15177;50.844;4.412;2023-07-29T06:39:08;25.70;99.90
27797;DHT22;15177;50.844;4.412;2023-07-29T06:41:34;25.50;99.90
27797;DHT22;15177;50.844;4.412;2023-07-29T06:44:01;25.40;99.90
27797;DHT22;15177;50.844;4.412;2023-07-29T06:46:29;25.60;99.90
27797;DHT22;15177;50.844;4.412;2023-07-29T06:48:55;26.20;99.90
27797;DHT22;15177;50.844;4.412;2023-07-29T06:51:21;27.10;99.90
27797;DHT22;15177;50.844;4.412;2023-07-29T06:53:50;27.70;99.90
27797;DHT22;15177;50.844;4.412;2023-07-29T06:56:15;27.70;99.90
27797;DHT22;15177;50.844;4.412;2023-07-29T06:58:41;27.60;99.90
27797;DHT22;15177;50.844;4.412;2023-07-29T07:01:07;27.30;99.90
27797;DHT22;15177;50.844;4.412;2023-07-29T07:03:34;26.70;99.90
27797;DHT22;15177;50.844;4.412;2023-07-29T07:05:59;26.00;99.90
27797;DHT22;15177;50.844;4.412;2023-07-29T07:08:28;25.40;99.90
27797;DHT22;15177;50.844;4.412;2023-07-29T07:10:56;24.90;99.90
27797;DHT22;15177;50.844;4.412;2023-07-29T07:13:22;24.50;99.90
27797;DHT22;15177;50.844;4.412;2023-07-29T07:15:50;24.20;99.90
27797;DHT22;15177;50.844;4.412;2023-07-29T07:18:16;23.80;99.90
27797;DHT22;15177;50.844;4.412;2023-07-29T07:20:41;23.50;99.90
27797;DHT22;15177;50.844;4.412;2023-07-29T07:23:10;23.30;99.90
27797;DHT22;15177;50.844;4.412;2023-07-29T07:25:40;23.10;99.90
27797;DHT22;15177;50.844;4.412;2023-07-29T07:28:07;22.90;99.90
27797;DHT22;15177;50.844;4.412;2023-07-29T07:30:39;22.70;99.90
27797;DHT22;15177;50.844;4.412;2023-07-29T07:33:07;22.70;99.90
27797;DHT22;15177;50.844;4.412;2023-07-29T07:35:33;22.50;99.90
27797;DHT22;15177;50.844;4.412;2023-07-29T07:37:59;22.40;99.90
27797;DHT22;15177;50.844;4.412;2023-07-29T07:40:31;22.30;99.90
27797;DHT22;15177;50.844;4.412;2023-07-29T07:42:57;22.30;99.90
27797;DHT22;15177;50.844;4.412;2023-07-29T07:45:26;22.20;99.90
27797;DHT22;15177;50.844;4.412;2023-07-29T07:47:54;22.20;99.90
27797;DHT22;15177;50.844;4.412;2023-07-29T07:50:20;22.40;99.90
27797;DHT22;15177;50.844;4.412;2023-07-29T07:52:46;22.50;99.90
27797;DHT22;15177;50.844;4.412;2023-07-29T07:55:12;22.70;99.90
27797;DHT22;15177;50.844;4.412;2023-07-29T07:57:44;22.90;99.90
27797;DHT22;15177;50.844;4.412;2023-07-29T08:00:10;23.00;99.90
27797;DHT22;15177;50.844;4.412;2023-07-29T08:02:36;22.90;99.90
27797;DHT22;15177;50.844;4.412;2023-07-29T08:05:05;23.00;99.90
27797;DHT22;15177;50.844;4.412;2023-07-29T08:07:31;23.10;99.90
27797;DHT22;15177;50.844;4.412;2023-07-29T08:09:59;23.40;99.90
27797;DHT22;15177;50.844;4.412;2023-07-29T08:12:24;23.90;99.90
27797;DHT22;15177;50.844;4.412;2023-07-29T08:14:58;24.50;99.90
27797;DHT22;15177;50.844;4.412;2023-07-29T08:17:24;25.90;99.90
27797;DHT22;15177;50.844;4.412;2023-07-29T08:19:50;27.30;99.90
27797;DHT22;15177;50.844;4.412;2023-07-29T08:22:16;28.50;99.90
27797;DHT22;15177;50.844;4.412;2023-07-29T08:24:43;28.80;99.90
27797;DHT22;15177;50.844;4.412;2023-07-29T08:27:09;28.50;99.90
27797;DHT22;15177;50.844;4.412;2023-07-29T08:29:36;28.50;99.90
27797;DHT22;15177;50.844;4.412;2023-07-29T08:32:07;28.70;99.90
27797;DHT22;15177;50.844;4.412;2023-07-29T08:34:33;28.90;99.90
27797;DHT22;15177;50.844;4.412;2023-07-29T08:37:01;29.00;99.90
27797;DHT22;15177;50.844;4.412;2023-07-29T08:39:27;29.30;99.90
27797;DHT22;15177;50.844;4.412;2023-07-29T08:42:08;29.40;99.90
27797;DHT22;15177;50.844;4.412;2023-07-29T08:44:43;29.40;99.90
27797;DHT22;15177;50.844;4.412;2023-07-29T08:47:14;29.30;99.90
27797;DHT22;15177;50.844;4.412;2023-07-29T08:49:48;30.20;99.30
27797;DHT22;15177;50.844;4.412;2023-07-29T08:52:21;31.10;97.30
27797;DHT22;15177;50.844;4.412;2023-07-29T08:54:48;31.70;94.80
27797;DHT22;15177;50.844;4.412;2023-07-29T08:57:17;31.50;94.00
27797;DHT22;15177;50.844;4.412;2023-07-29T09:00:08;31.60;94.20
27797;DHT22;15177;50.844;4.412;2023-07-29T09:02:40;32.40;92.30
27797;DHT22;15177;50.844;4.412;2023-07-29T09:05:07;33.20;90.00
27797;DHT22;15177;50.844;4.412;2023-07-29T09:07:36;33.80;85.80
27797;DHT22;15177;50.844;4.412;2023-07-29T09:10:02;34.40;82.20
27797;DHT22;15177;50.844;4.412;2023-07-29T09:12:28;35.10;77.80
27797;DHT22;15177;50.844;4.412;2023-07-29T09:14:56;35.60;74.40
27797;DHT22;15177;50.844;4.412;2023-07-29T09:17:23;35.70;73.00
27797;DHT22;15177;50.844;4.412;2023-07-29T09:19:50;35.00;72.60
27797;DHT22;15177;50.844;4.412;2023-07-29T09:22:20;34.40;73.50
27797;DHT22;15177;50.844;4.412;2023-07-29T09:24:49;33.50;75.10
27797;DHT22;15177;50.844;4.412;2023-07-29T09:27:25;32.50;76.90
27797;DHT22;15177;50.844;4.412;2023-07-29T09:29:53;31.90;80.30
27797;DHT22;15177;50.844;4.412;2023-07-29T09:32:21;31.40;82.50
27797;DHT22;15177;50.844;4.412;2023-07-29T09:34:53;30.90;84.20
27797;DHT22;15177;50.844;4.412;2023-07-29T09:37:22;30.70;85.50
27797;DHT22;15177;50.844;4.412;2023-07-29T09:39:49;30.90;86.50
27797;DHT22;15177;50.844;4.412;2023-07-29T09:42:24;31.00;86.00
27797;DHT22;15177;50.844;4.412;2023-07-29T09:44:50;30.50;87.20
27797;DHT22;15177;50.844;4.412;2023-07-29T09:47:23;29.80;90.40
27797;DHT22;15177;50.844;4.412;2023-07-29T09:49:49;29.20;92.10
27797;DHT22;15177;50.844;4.412;2023-07-29T09:52:23;28.70;93.60
27797;DHT22;15177;50.844;4.412;2023-07-29T09:54:49;28.20;95.10
27797;DHT22;15177;50.844;4.412;2023-07-29T09:57:17;27.90;96.80
27797;DHT22;15177;50.844;4.412;2023-07-29T09:59:54;27.40;98.40
27797;DHT22;15177;50.844;4.412;2023-07-29T10:02:24;27.20;99.90
27797;DHT22;15177;50.844;4.412;2023-07-29T10:04:54;27.50;99.90
27797;DHT22;15177;50.844;4.412;2023-07-29T10:07:21;28.50;99.90
27797;DHT22;15177;50.844;4.412;2023-07-29T10:09:51;29.70;97.80
27797;DHT22;15177;50.844;4.412;2023-07-29T10:12:24;30.50;94.20
27797;DHT22;15177;50.844;4.412;2023-07-29T10:14:53;30.70;93.40
27797;DHT22;15177;50.844;4.412;2023-07-29T10:17:21;30.60;93.10
27797;DHT22;15177;50.844;4.412;2023-07-29T10:19:47;30.10;93.40
27797;DHT22;15177;50.844;4.412;2023-07-29T10:22:20;29.40;95.50
27797;DHT22;15177;50.844;4.412;2023-07-29T10:24:50;29.30;96.40
27797;DHT22;15177;50.844;4.412;2023-07-29T10:27:19;29.40;96.00
27797;DHT22;15177;50.844;4.412;2023-07-29T10:29:46;29.20;96.50
27797;DHT22;15177;50.844;4.412;2023-07-29T10:32:13;28.80;97.50
27797;DHT22;15177;50.844;4.412;2023-07-29T10:34:42;28.50;98.60
27797;DHT22;15177;50.844;4.412;2023-07-29T10:37:11;28.10;99.20
27797;DHT22;15177;50.844;4.412;2023-07-29T10:39:55;27.40;99.90
27797;DHT22;15177;50.844;4.412;2023-07-29T10:42:25;26.80;99.90
27797;DHT22;15177;50.844;4.412;2023-07-29T10:54:18;25.10;99.90
27797;DHT22;15177;50.844;4.412;2023-07-29T10:56:58;25.00;99.90
27797;DHT22;15177;50.844;4.412;2023-07-29T10:59:59;25.00;99.90
27797;DHT22;15177;50.844;4.412;2023-07-29T11:02:39;24.90;99.90
27797;DHT22;15177;50.844;4.412;2023-07-29T11:05:23;24.80;99.90
27797;DHT22;15177;50.844;4.412;2023-07-29T11:07:48;24.70;99.90
27797;DHT22;15177;50.844;4.412;2023-07-29T11:10:15;24.60;99.90
27797;DHT22;15177;50.844;4.412;2023-07-29T11:12:52;24.60;99.90
27797;DHT22;15177;50.844;4.412;2023-07-29T11:15:26;24.50;99.90
27797;DHT22;15177;50.844;4.412;2023-07-29T11:18:14;24.50;99.90
27797;DHT22;15177;50.844;4.412;2023-07-29T11:20:40;24.30;99.90
27797;DHT22;15177;50.844;4.412;2023-07-29T11:23:06;24.30;99.90
27797;DHT22;15177;50.844;4.412;2023-07-29T11:25:37;24.30;99.90
27797;DHT22;15177;50.844;4.412;2023-07-29T11:28:06;24.30;99.90
27797;DHT22;15177;50.844;4.412;2023-07-29T11:30:44;24.10;99.90
27797;DHT22;15177;50.844;4.412;2023-07-29T11:33:16;24.10;99.90
27797;DHT22;15177;50.844;4.412;2023-07-29T11:35:51;24.10;99.90
27797;DHT22;15177;50.844;4.412;2023-07-29T11:38:18;24.10;99.90
27797;DHT22;15177;50.844;4.412;2023-07-29T11:41:05;24.00;99.90
27797;DHT22;15177;50.844;4.412;2023-07-29T11:43:44;24.00;99.90
27797;DHT22;15177;50.844;4.412;2023-07-29T11:46:21;24.20;99.90
27797;DHT22;15177;50.844;4.412;2023-07-29T11:48:53;24.50;99.90
27797;DHT22;15177;50.844;4.412;2023-07-29T11:51:20;24.70;99.90
27797;DHT22;15177;50.844;4.412;2023-07-29T11:53:49;24.90;99.90
27797;DHT22;15177;50.844;4.412;2023-07-29T11:56:27;25.30;99.90
27797;DHT22;15177;50.844;4.412;2023-07-29T11:58:56;25.40;99.90
27797;DHT22;15177;50.844;4.412;2023-07-29T12:01:25;25.50;99.90
27797;DHT22;15177;50.844;4.412;2023-07-29T12:03:53;25.50;99.90
27797;DHT22;15177;50.844;4.412;2023-07-29T12:06:23;25.40;99.90
27797;DHT22;15177;50.844;4.412;2023-07-29T12:08:53;25.30;99.90
27797;DHT22;15177;50.844;4.412;2023-07-29T12:11:22;25.30;99.90
27797;DHT22;15177;50.844;4.412;2023-07-29T12:13:53;25.30;99.90
27797;DHT22;15177;50.844;4.412;2023-07-29T12:17:07;25.10;99.90
27797;DHT22;15177;50.844;4.412;2023-07-29T12:19:35;24.80;99.90
27797;DHT22;15177;50.844;4.412;2023-07-29T12:22:02;24.60;99.90
27797;DHT22;15177;50.844;4.412;2023-07-29T12:24:43;24.40;99.90
27797;DHT22;15177;50.844;4.412;2023-07-29T12:27:22;24.10;99.90
27797;DHT22;15177;50.844;4.412;2023-07-29T12:29:57;24.10;99.90
27797;DHT22;15177;50.844;4.412;2023-07-29T12:32:29;24.10;99.90
27797;DHT22;15177;50.844;4.412;2023-07-29T12:35:00;24.00;99.90
27797;DHT22;15177;50.844;4.412;2023-07-29T12:37:42;23.80;99.90
27797;DHT22;15177;50.844;4.412;2023-07-29T12:40:28;23.70;99.90
27797;DHT22;15177;50.844;4.412;2023-07-29T12:45:57;23.80;99.90
27797;DHT22;15177;50.844;4.412;2023-07-29T12:48:25;24.10;99.90
27797;DHT22;15177;50.844;4.412;2023-07-29T12:51:03;24.30;99.90
27797;DHT22;15177;50.844;4.412;2023-07-29T12:53:31;24.40;99.90
27797;DHT22;15177;50.844;4.412;2023-07-29T12:56:06;24.50;99.90
27797;DHT22;15177;50.844;4.412;2023-07-29T12:58:57;24.50;99.90
27797;DHT22;15177;50.844;4.412;2023-07-29T13:01:33;24.70;99.90
27797;DHT22;15177;50.844;4.412;2023-07-29T13:04:04;24.90;99.90
27797;DHT22;15177;50.844;4.412;2023-07-29T13:06:37;25.10;99.90
27797;DHT22;15177;50.844;4.412;2023-07-29T13:09:06;25.40;99.90
27797;DHT22;15177;50.844;4.412;2023-07-29T13:11:34;25.70;99.90
27797;DHT22;15177;50.844;4.412;2023-07-29T13:14:01;25.70;99.90
27797;DHT22;15177;50.844;4.412;2023-07-29T13:16:29;25.70;99.90
27797;DHT22;15177;50.844;4.412;2023-07-29T13:18:55;25.70;99.90
27797;DHT22;15177;50.844;4.412;2023-07-29T13:21:31;25.50;99.90
27797;DHT22;15177;50.844;4.412;2023-07-29T13:23:57;25.40;99.90
27797;DHT22;15177;50.844;4.412;2023-07-29T13:26:26;25.30;99.90
27797;DHT22;15177;50.844;4.412;2023-07-29T13:28:51;25.40;99.90
27797;DHT22;15177;50.844;4.412;2023-07-29T13:31:22;25.40;99.90
27797;DHT22;15177;50.844;4.412;2023-07-29T13:33:49;25.40;99.90
27797;DHT22;15177;50.844;4.412;2023-07-29T13:36:18;25.40;99.90
27797;DHT22;15177;50.844;4.412;2023-07-29T13:38:48;25.60;99.90
27797;DHT22;15177;50.844;4.412;2023-07-29T13:41:14;25.70;99.90
27797;DHT22;15177;50.844;4.412;2023-07-29T13:43:40;25.90;99.90
27797;DHT22;15177;50.844;4.412;2023-07-29T13:46:08;25.90;99.90
27797;DHT22;15177;50.844;4.412;2023-07-29T13:48:34;25.90;99.90
27797;DHT22;15177;50.844;4.412;2023-07-29T13:51:01;25.90;99.90
27797;DHT22;15177;50.844;4.412;2023-07-29T13:53:27;25.90;99.90
27797;DHT22;15177;50.844;4.412;2023-07-29T13:55:55;25.90;99.90
27797;DHT22;15177;50.844;4.412;2023-07-29T13:58:28;25.90;99.90
27797;DHT22;15177;50.844;4.412;2023-07-29T14:00:59;25.80;99.90
27797;DHT22;15177;50.844;4.412;2023-07-29T14:03:27;25.50;99.90
27797;DHT22;15177;50.844;4.412;2023-07-29T14:05:53;25.50;99.90
27797;DHT22;15177;50.844;4.412;2023-07-29T14:08:20;25.30;99.90
27797;DHT22;15177;50.844;4.412;2023-07-29T14:10:50;25.20;99.90
27797;DHT22;15177;50.844;4.412;2023-07-29T14:13:17;25.30;99.90
27797;DHT22;15177;50.844;4.412;2023-07-29T14:15:45;25.30;99.90
27797;DHT22;15177;50.844;4.412;2023-07-29T14:18:20;25.30;99.90
27797;DHT22;15177;50.844;4.412;2023-07-29T14:20:50;25.30;99.90
27797;DHT22;15177;50.844;4.412;2023-07-29T14:23:24;25.10;99.90
27797;DHT22;15177;50.844;4.412;2023-07-29T14:25:56;25.10;99.90
27797;DHT22;15177;50.844;4.412;2023-07-29T14:28:22;25.20;99.90
27797;DHT22;15177;50.844;4.412;2023-07-29T14:30:51;25.30;99.90
27797;DHT22;15177;50.844;4.412;2023-07-29T14:33:29;25.40;99.90
27797;DHT22;15177;50.844;4.412;2023-07-29T14:36:03;25.50;99.90
27797;DHT22;15177;50.844;4.412;2023-07-29T14:38:36;25.60;99.90
27797;DHT22;15177;50.844;4.412;2023-07-29T14:41:03;25.60;99.90
27797;DHT22;15177;50.844;4.412;2023-07-29T14:43:32;25.60;99.90
27797;DHT22;15177;50.844;4.412;2023-07-29T14:46:02;25.60;99.90
27797;DHT22;15177;50.844;4.412;2023-07-29T14:48:33;25.70;99.90
27797;DHT22;15177;50.844;4.412;2023-07-29T14:51:06;25.70;99.90
27797;DHT22;15177;50.844;4.412;2023-07-29T14:53:34;25.60;99.90
27797;DHT22;15177;50.844;4.412;2023-07-29T14:56:03;25.50;99.90
27797;DHT22;15177;50.844;4.412;2023-07-29T14:58:28;25.40;99.90
27797;DHT22;15177;50.844;4.412;2023-07-29T15:00:57;25.30;99.90
27797;DHT22;15177;50.844;4.412;2023-07-29T15:03:25;25.30;99.90
27797;DHT22;15177;50.844;4.412;2023-07-29T15:05:52;25.30;99.90
27797;DHT22;15177;50.844;4.412;2023-07-29T15:08:21;25.30;99.90
27797;DHT22;15177;50.844;4.412;2023-07-29T15:10:47;25.30;99.90
27797;DHT22;15177;50.844;4.412;2023-07-29T15:13:16;25.30;99.90
27797;DHT22;15177;50.844;4.412;2023-07-29T15:15:42;25.30;99.90
27797;DHT22;15177;50.844;4.412;2023-07-29T15:18:09;25.30;99.90
27797;DHT22;15177;50.844;4.412;2023-07-29T15:20:35;25.30;99.90
27797;DHT22;15177;50.844;4.412;2023-07-29T15:23:03;25.40;99.90
27797;DHT22;15177;50.844;4.412;2023-07-29T15:25:29;25.30;99.90
27797;DHT22;15177;50.844;4.412;2023-07-29T15:27:57;25.20;99.90
27797;DHT22;15177;50.844;4.412;2023-07-29T15:30:23;25.10;99.90
27797;DHT22;15177;50.844;4.412;2023-07-29T15:32:49;25.10;99.90
27797;DHT22;15177;50.844;4.412;2023-07-29T15:35:18;25.00;99.90
27797;DHT22;15177;50.844;4.412;2023-07-29T15:37:43;24.90;99.90
27797;DHT22;15177;50.844;4.412;2023-07-29T15:40:14;24.90;99.90
27797;DHT22;15177;50.844;4.412;2023-07-29T15:42:42;24.90;99.90
27797;DHT22;15177;50.844;4.412;2023-07-29T15:45:11;24.90;99.90
27797;DHT22;15177;50.844;4.412;2023-07-29T15:47:37;24.90;99.90
27797;DHT22;15177;50.844;4.412;2023-07-29T15:50:09;24.60;99.90
27797;DHT22;15177;50.844;4.412;2023-07-29T15:52:34;24.50;99.90
27797;DHT22;15177;50.844;4.412;2023-07-29T15:55:00;24.40;99.90
27797;DHT22;15177;50.844;4.412;2023-07-29T15:57:26;24.50;99.90
27797;DHT22;15177;50.844;4.412;2023-07-29T15:59:55;24.70;99.90
27797;DHT22;15177;50.844;4.412;2023-07-29T16:02:21;24.60;99.90
27797;DHT22;15177;50.844;4.412;2023-07-29T16:05:28;24.40;99.90
27797;DHT22;15177;50.844;4.412;2023-07-29T16:08:08;24.30;99.90